createdAt,value
2023-03-15T02:46:05.799Z,401.00
2023-03-15T02:47:05.747Z,400.00
2023-03-15T02:48:05.713Z,402.00
2023-03-15T02:49:05.712Z,402.00
2023-03-15T02:50:05.703Z,402.00
2023-03-15T02:51:05.704Z,399.00
2023-03-15T02:52:05.667Z,400.00
2023-03-15T02:53:05.646Z,400.00
2023-03-15T02:54:05.618Z,397.00
2023-03-15T02:55:05.628Z,397.00
2023-03-15T02:56:05.634Z,397.00
2023-03-15T02:57:05.569Z,399.00
2023-03-15T02:58:05.553Z,397.00
2023-03-15T02:59:05.531Z,401.00
2023-03-15T03:00:05.527Z,403.00
2023-03-15T03:01:05.573Z,403.00
2023-03-15T03:02:05.514Z,404.00
2023-03-15T03:03:05.482Z,405.00
2023-03-15T03:04:05.464Z,403.00
2023-03-15T03:05:05.453Z,403.00
2023-03-15T03:06:05.418Z,399.00
2023-03-15T03:07:05.416Z,394.00
2023-03-15T03:08:05.376Z,394.00
2023-03-15T03:09:05.386Z,395.00
2023-03-15T03:10:05.380Z,397.00
2023-03-15T03:11:05.329Z,400.00
2023-03-15T03:12:05.312Z,401.00
2023-03-15T03:13:05.287Z,398.00
2023-03-15T03:14:05.276Z,400.00
2023-03-15T03:15:05.256Z,398.00
2023-03-15T03:16:05.245Z,397.00
2023-03-15T03:17:05.236Z,399.00
2023-03-15T03:18:05.218Z,397.00
2023-03-15T03:19:05.187Z,395.00
2023-03-15T03:20:05.204Z,395.00
2023-03-15T03:21:05.154Z,394.00
2023-03-15T03:22:05.164Z,392.00
2023-03-15T03:23:05.117Z,390.00
2023-03-15T03:24:05.123Z,393.00
2023-03-15T03:25:05.096Z,394.00
2023-03-15T03:26:05.089Z,394.00
2023-03-15T03:27:05.079Z,393.00
2023-03-15T03:28:05.052Z,393.00
2023-03-15T03:29:05.031Z,391.00
2023-03-15T03:30:05.021Z,390.00
2023-03-15T03:31:05.079Z,391.00
2023-03-15T03:32:04.991Z,388.00
2023-03-15T03:33:05.012Z,388.00
2023-03-15T03:34:04.960Z,386.00
2023-03-15T03:35:04.944Z,385.00
2023-03-15T03:36:04.998Z,386.00
2023-03-15T03:37:04.908Z,383.00
2023-03-15T03:38:04.897Z,383.00
2023-03-15T03:39:04.867Z,383.00
2023-03-15T03:40:04.870Z,384.00
2023-03-15T03:41:04.867Z,383.00
2023-03-15T03:42:04.948Z,382.00
2023-03-15T03:43:04.835Z,382.00
2023-03-15T03:44:04.865Z,382.00
2023-03-15T03:45:04.819Z,383.00
2023-03-15T03:46:04.825Z,380.00
2023-03-15T03:47:04.773Z,381.00
2023-03-15T03:48:04.764Z,386.00
2023-03-15T03:49:04.822Z,384.00
2023-03-15T03:50:04.779Z,380.00
2023-03-15T03:51:04.715Z,378.00
2023-03-15T03:52:04.713Z,379.00
2023-03-15T03:53:04.721Z,380.00
2023-03-15T03:54:04.710Z,378.00
2023-03-15T03:55:04.725Z,378.00
2023-03-15T03:56:04.656Z,380.00
2023-03-15T03:57:04.632Z,379.00
2023-03-15T03:58:04.622Z,378.00
2023-03-15T03:59:04.610Z,378.00
2023-03-15T04:00:04.595Z,375.00
2023-03-15T04:01:04.567Z,375.00
2023-03-15T04:02:04.538Z,378.00
2023-03-15T04:03:04.535Z,379.00
2023-03-15T04:04:04.533Z,379.00
2023-03-15T04:05:04.501Z,380.00
2023-03-15T04:06:04.543Z,378.00
2023-03-15T04:07:04.476Z,377.00
2023-03-15T04:08:04.473Z,379.00
2023-03-15T04:09:04.473Z,380.00
2023-03-15T04:10:04.440Z,379.00
2023-03-15T04:11:04.460Z,378.00
2023-03-15T04:12:04.522Z,380.00
2023-03-15T04:13:04.418Z,378.00
2023-03-15T04:14:04.448Z,376.00
2023-03-15T04:15:04.391Z,375.00
2023-03-15T04:16:04.472Z,375.00
2023-03-15T04:17:04.362Z,375.00
2023-03-15T04:18:04.348Z,374.00
2023-03-15T04:19:04.350Z,377.00
2023-03-15T04:20:04.326Z,376.00
2023-03-15T04:21:04.323Z,376.00
2023-03-15T04:22:04.300Z,374.00
2023-03-15T04:23:04.287Z,370.00
2023-03-15T04:24:04.293Z,369.00
2023-03-15T04:25:04.270Z,370.00
2023-03-15T04:26:04.260Z,370.00
2023-03-15T04:27:04.260Z,368.00
2023-03-15T04:28:04.263Z,370.00
2023-03-15T04:29:04.242Z,368.00
2023-03-15T04:30:04.208Z,369.00
2023-03-15T04:31:04.278Z,371.00
2023-03-15T04:32:04.192Z,370.00
2023-03-15T04:33:04.193Z,371.00
2023-03-15T04:34:04.200Z,367.00
2023-03-15T04:35:04.177Z,367.00
2023-03-15T04:36:04.219Z,370.00
2023-03-15T04:37:04.153Z,374.00
2023-03-15T04:38:04.159Z,373.00
2023-03-15T04:39:04.133Z,376.00
2023-03-15T04:40:04.122Z,375.00
2023-03-15T04:41:04.121Z,378.00
2023-03-15T04:42:04.113Z,380.00
2023-03-15T04:43:04.094Z,378.00
2023-03-15T04:44:04.075Z,377.00
2023-03-15T04:45:04.102Z,377.00
2023-03-15T04:46:04.093Z,377.00
2023-03-15T04:47:04.152Z,378.00
2023-03-15T04:48:04.114Z,376.00
2023-03-15T04:49:04.057Z,374.00
2023-03-15T04:50:04.049Z,375.00
2023-03-15T04:51:04.049Z,374.00
2023-03-15T04:52:04.024Z,374.00
2023-03-15T04:53:04.047Z,375.00
2023-03-15T04:54:04.040Z,376.00
2023-03-15T04:55:04.012Z,377.00
2023-03-15T04:56:04.845Z,377.00
2023-03-15T04:57:03.996Z,378.00
2023-03-15T04:58:03.981Z,375.00
2023-03-15T04:59:03.989Z,375.00
2023-03-15T05:00:03.956Z,377.00
2023-03-15T05:01:04.008Z,376.00
2023-03-15T05:02:04.154Z,375.00
2023-03-15T05:03:03.939Z,375.00
2023-03-15T05:04:03.955Z,373.00
2023-03-15T05:05:03.998Z,373.00
2023-03-15T05:06:03.905Z,373.00
2023-03-15T05:07:03.911Z,369.00
2023-03-15T05:08:03.882Z,367.00
2023-03-15T05:09:03.882Z,365.00
2023-03-15T05:10:03.860Z,366.00
2023-03-15T05:11:03.843Z,368.00
2023-03-15T05:12:03.847Z,370.00
2023-03-15T05:13:03.841Z,368.00
2023-03-15T05:14:03.830Z,370.00
2023-03-15T05:15:03.925Z,366.00
2023-03-15T05:16:03.841Z,366.00
2023-03-15T05:17:03.807Z,369.00
2023-03-15T05:18:03.780Z,370.00
2023-03-15T05:19:03.792Z,369.00
2023-03-15T05:20:03.788Z,371.00
2023-03-15T05:21:03.754Z,373.00
2023-03-15T05:22:03.747Z,376.00
2023-03-15T05:23:03.730Z,376.00
2023-03-15T05:24:03.724Z,374.00
2023-03-15T05:25:03.719Z,374.00
2023-03-15T05:26:03.725Z,374.00
2023-03-15T05:27:03.685Z,373.00
2023-03-15T05:28:03.671Z,372.00
2023-03-15T05:29:03.672Z,370.00
2023-03-15T05:30:03.664Z,368.00
2023-03-15T05:31:03.644Z,371.00
2023-03-15T05:32:03.640Z,371.00
2023-03-15T05:33:03.630Z,370.00
2023-03-15T05:34:03.607Z,368.00
2023-03-15T05:35:03.597Z,367.00
2023-03-15T05:36:03.603Z,365.00
2023-03-15T05:37:03.591Z,366.00
2023-03-15T05:38:03.596Z,367.00
2023-03-15T05:39:03.580Z,369.00
2023-03-15T05:40:03.546Z,369.00
2023-03-15T05:41:03.593Z,371.00
2023-03-15T05:42:03.511Z,372.00
2023-03-15T05:43:03.506Z,371.00
2023-03-15T05:44:03.504Z,368.00
2023-03-15T05:45:03.484Z,367.00
2023-03-15T05:46:03.479Z,367.00
2023-03-15T05:47:03.505Z,368.00
2023-03-15T05:48:03.483Z,370.00
2023-03-15T05:49:03.500Z,370.00
2023-03-15T05:50:03.507Z,370.00
2023-03-15T05:51:03.441Z,370.00
2023-03-15T05:52:03.504Z,368.00
2023-03-15T05:53:03.463Z,367.00
2023-03-15T05:54:03.470Z,366.00
2023-03-15T05:55:03.493Z,363.00
2023-03-15T05:56:03.439Z,364.00
2023-03-15T05:57:03.456Z,363.00
2023-03-15T05:58:03.425Z,366.00
2023-03-15T05:59:03.403Z,363.00
2023-03-15T06:00:03.398Z,363.00
2023-03-15T06:01:03.353Z,363.00
2023-03-15T06:02:03.386Z,362.00
2023-03-15T06:03:03.499Z,362.00
2023-03-15T06:04:03.394Z,360.00
2023-03-15T06:05:03.322Z,359.00
2023-03-15T06:06:03.312Z,363.00
2023-03-15T06:07:03.338Z,364.00
2023-03-15T06:08:03.295Z,362.00
2023-03-15T06:09:03.281Z,360.00
2023-03-15T06:10:03.283Z,359.00
2023-03-15T06:11:03.280Z,357.00
2023-03-15T06:12:03.236Z,358.00
2023-03-15T06:13:03.242Z,361.00
2023-03-15T06:14:03.209Z,360.00
2023-03-15T06:15:03.498Z,359.00
2023-03-15T06:16:03.267Z,359.00
2023-03-15T06:17:03.325Z,358.00
2023-03-15T06:18:03.196Z,359.00
2023-03-15T06:19:03.232Z,359.00
2023-03-15T06:20:03.191Z,359.00
2023-03-15T06:21:03.194Z,359.00
2023-03-15T06:22:03.965Z,358.00
2023-03-15T06:23:03.179Z,360.00
2023-03-15T06:24:03.260Z,357.00
2023-03-15T06:25:03.174Z,356.00
2023-03-15T06:26:03.117Z,360.00
2023-03-15T06:27:03.143Z,362.00
2023-03-15T06:28:03.173Z,359.00
2023-03-15T06:29:03.107Z,359.00
2023-03-15T06:30:03.142Z,359.00
2023-03-15T06:31:03.259Z,363.00
2023-03-15T06:32:03.206Z,376.00
2023-03-15T06:33:03.181Z,471.00
2023-03-15T06:34:03.101Z,578.00
2023-03-15T06:35:03.052Z,565.00
2023-03-15T06:36:03.077Z,560.00
2023-03-15T06:37:03.033Z,560.00
2023-03-15T06:38:03.053Z,591.00
2023-03-15T06:39:03.035Z,601.00
2023-03-15T06:40:03.003Z,610.00
2023-03-15T06:41:02.989Z,618.00
2023-03-15T06:42:02.982Z,694.00
2023-03-15T06:43:02.962Z,669.00
2023-03-15T06:44:02.984Z,663.00
2023-03-15T06:45:02.938Z,669.00
2023-03-15T06:46:02.989Z,684.00
2023-03-15T06:47:02.938Z,726.00
2023-03-15T06:48:02.994Z,772.00
2023-03-15T06:49:02.911Z,798.00
2023-03-15T06:50:02.910Z,826.00
2023-03-15T06:51:02.876Z,841.00
2023-03-15T06:52:02.848Z,854.00
2023-03-15T06:53:02.837Z,866.00
2023-03-15T06:54:02.848Z,877.00
2023-03-15T06:55:02.935Z,889.00
2023-03-15T06:56:02.810Z,899.00
2023-03-15T06:57:02.782Z,906.00
2023-03-15T06:58:02.775Z,920.00
2023-03-15T06:59:02.786Z,927.00
2023-03-15T07:00:02.812Z,937.00
2023-03-15T07:01:02.778Z,959.00
2023-03-15T07:02:02.758Z,971.00
2023-03-15T07:03:02.719Z,998.00
2023-03-15T07:04:02.690Z,1021.00
2023-03-15T07:05:02.645Z,1034.00
2023-03-15T07:06:02.660Z,1038.00
2023-03-15T07:07:02.591Z,1049.00
2023-03-15T07:08:02.573Z,1071.00
2023-03-15T07:09:02.532Z,1086.00
2023-03-15T07:10:02.543Z,1094.00
2023-03-15T07:11:02.502Z,1100.00
2023-03-15T07:12:02.474Z,1109.00
2023-03-15T07:13:02.471Z,1123.00
2023-03-15T07:14:02.437Z,1135.00
2023-03-15T07:15:02.510Z,1149.00
2023-03-15T07:16:03.065Z,1156.00
2023-03-15T07:17:02.464Z,1170.00
2023-03-15T07:18:02.415Z,1189.00
2023-03-15T07:19:02.414Z,1201.00
2023-03-15T07:20:02.432Z,1212.00
2023-03-15T07:21:02.386Z,1219.00
2023-03-15T07:22:04.029Z,1230.00
2023-03-15T07:23:02.446Z,1235.00
2023-03-15T07:24:02.377Z,1272.00
2023-03-15T07:25:02.363Z,1285.00
2023-03-15T07:26:04.200Z,1284.00
2023-03-15T07:27:02.406Z,1305.00
2023-03-15T07:28:02.317Z,1320.00
2023-03-15T07:29:02.206Z,1323.00
2023-03-15T07:30:02.995Z,1339.00
2023-03-15T07:31:02.146Z,1356.00
2023-03-15T07:32:02.202Z,1383.00
2023-03-15T07:33:02.391Z,1406.00
2023-03-15T07:34:02.135Z,1420.00
2023-03-15T07:35:02.073Z,1421.00
2023-03-15T07:36:01.997Z,1426.00
2023-03-15T07:37:01.970Z,1437.00
2023-03-15T07:38:01.868Z,1442.00
2023-03-15T07:39:01.936Z,1453.00
2023-03-15T07:40:01.874Z,1466.00
2023-03-15T07:41:01.779Z,1461.00
2023-03-15T07:42:01.767Z,1508.00
2023-03-15T07:43:01.699Z,1530.00
2023-03-15T07:44:01.737Z,1538.00
2023-03-15T07:45:01.630Z,1559.00
2023-03-15T07:46:01.677Z,1561.00
2023-03-15T07:47:01.622Z,1557.00
2023-03-15T07:48:01.503Z,1515.00
2023-03-15T07:49:01.477Z,1502.00
2023-03-15T07:50:01.689Z,1489.00
2023-03-15T07:51:01.408Z,1487.00
2023-03-15T07:52:01.379Z,1503.00
2023-03-15T07:53:01.354Z,1502.00
2023-03-15T07:54:01.992Z,1509.00
2023-03-15T07:55:01.242Z,1517.00
2023-03-15T07:56:01.211Z,1534.00
2023-03-15T07:57:01.193Z,1554.00
2023-03-15T07:58:01.146Z,1559.00
2023-03-15T07:59:01.105Z,1591.00
2023-03-15T08:00:01.077Z,1608.00
2023-03-15T08:01:01.012Z,1628.00
2023-03-15T08:02:02.916Z,1629.00
2023-03-15T08:03:00.988Z,1642.00
2023-03-15T08:04:00.879Z,1648.00
2023-03-15T08:05:00.861Z,1658.00
2023-03-15T08:06:00.818Z,1663.00
2023-03-15T08:07:00.725Z,1672.00
2023-03-15T08:08:00.696Z,1683.00
2023-03-15T08:09:00.723Z,1700.00
2023-03-15T08:10:00.595Z,1713.00
2023-03-15T08:11:00.556Z,1721.00
2023-03-15T08:12:00.488Z,1732.00
2023-03-15T08:13:00.473Z,1746.00
2023-03-15T08:14:00.411Z,1759.00
2023-03-15T08:15:00.352Z,1771.00
2023-03-15T08:16:00.401Z,1779.00
2023-03-15T08:17:00.255Z,1795.00
2023-03-15T08:18:00.186Z,1797.00
2023-03-15T08:19:00.140Z,1808.00
2023-03-15T08:20:00.125Z,1825.00
2023-03-15T08:21:00.068Z,1843.00
2023-03-15T08:21:59.973Z,1850.00
2023-03-15T08:22:59.910Z,1854.00
2023-03-15T08:23:59.860Z,1864.00
2023-03-15T08:24:59.824Z,1864.00
2023-03-15T08:25:59.738Z,1869.00
2023-03-15T08:26:59.696Z,1876.00
2023-03-15T08:27:59.626Z,1888.00
2023-03-15T08:28:59.576Z,1894.00
2023-03-15T08:29:59.560Z,1893.00
2023-03-15T08:30:59.449Z,1896.00
2023-03-15T08:32:01.130Z,1894.00
2023-03-15T08:32:59.375Z,1907.00
2023-03-15T08:33:59.377Z,1968.00
2023-03-15T08:34:59.243Z,1970.00
2023-03-15T08:35:59.257Z,1987.00
2023-03-15T08:36:59.141Z,1996.00
2023-03-15T08:37:59.071Z,1996.00
2023-03-15T08:38:59.021Z,1998.00
2023-03-15T08:39:58.954Z,1999.00
2023-03-15T08:40:58.924Z,1997.00
2023-03-15T08:41:58.885Z,1998.00
2023-03-15T08:42:58.808Z,1996.00
2023-03-15T08:43:58.749Z,1999.00
2023-03-15T08:44:58.711Z,2012.00
2023-03-15T08:46:01.476Z,2050.00
2023-03-15T08:46:58.842Z,2097.00
2023-03-15T08:47:58.548Z,2107.00
2023-03-15T08:48:58.528Z,2110.00
2023-03-15T08:49:58.488Z,2116.00
2023-03-15T08:50:58.389Z,2155.00
2023-03-15T08:51:58.395Z,2163.00
2023-03-15T08:52:59.044Z,2169.00
2023-03-15T08:53:58.244Z,2170.00
2023-03-15T08:54:58.177Z,2176.00
2023-03-15T08:55:58.120Z,2184.00
2023-03-15T08:56:58.082Z,2209.00
2023-03-15T08:57:58.018Z,2223.00
2023-03-15T08:58:57.946Z,2219.00
2023-03-15T08:59:57.887Z,2216.00
2023-03-15T09:00:57.830Z,2218.00
2023-03-15T09:01:57.849Z,2206.00
2023-03-15T09:02:57.753Z,2204.00
2023-03-15T09:03:57.709Z,2218.00
2023-03-15T09:04:57.677Z,2226.00
2023-03-15T09:05:57.571Z,2261.00
2023-03-15T09:06:57.560Z,2275.00
2023-03-15T09:07:57.485Z,2271.00
2023-03-15T09:08:57.439Z,2271.00
2023-03-15T09:09:57.385Z,2276.00
2023-03-15T09:10:57.348Z,2278.00
2023-03-15T09:11:57.287Z,2282.00
2023-03-15T09:12:57.198Z,2275.00
2023-03-15T09:13:57.169Z,2270.00
2023-03-15T09:14:57.116Z,2272.00
2023-03-15T09:15:57.039Z,2268.00
2023-03-15T09:16:57.027Z,2281.00
2023-03-15T09:17:56.945Z,2288.00
2023-03-15T09:18:56.893Z,2275.00
2023-03-15T09:19:56.833Z,2282.00
2023-03-15T09:20:57.751Z,2282.00
2023-03-15T09:21:59.416Z,2252.00
2023-03-15T09:22:57.751Z,2265.00
2023-03-15T09:23:56.641Z,2279.00
2023-03-15T09:24:56.597Z,2279.00
2023-03-15T09:25:56.556Z,2315.00
2023-03-15T09:26:56.500Z,2302.00
2023-03-15T09:27:56.482Z,2309.00
2023-03-15T09:28:56.422Z,2316.00
2023-03-15T09:29:56.350Z,2313.00
2023-03-15T09:30:58.230Z,2335.00
2023-03-15T09:31:56.469Z,2488.00
2023-03-15T09:32:56.332Z,2462.00
2023-03-15T09:33:56.251Z,2455.00
2023-03-15T09:34:56.206Z,2338.00
2023-03-15T09:35:56.164Z,2256.00
2023-03-15T09:36:56.076Z,2193.00
2023-03-15T09:37:56.084Z,2075.00
2023-03-15T09:38:55.981Z,1976.00
2023-03-15T09:39:55.946Z,1943.00
2023-03-15T09:40:55.947Z,1863.00
2023-03-15T09:41:55.842Z,1809.00
2023-03-15T09:42:55.814Z,1684.00
2023-03-15T09:43:55.756Z,1635.00
2023-03-15T09:44:55.757Z,1550.00
2023-03-15T09:45:55.765Z,1537.00
2023-03-15T09:46:55.648Z,1491.00
2023-03-15T09:47:55.604Z,1454.00
2023-03-15T09:48:55.567Z,1343.00
2023-03-15T09:49:56.349Z,1348.00
2023-03-15T09:50:55.461Z,1318.00
2023-03-15T09:51:55.435Z,1295.00
2023-03-15T09:52:55.396Z,1248.00
2023-03-15T09:53:55.394Z,1223.00
2023-03-15T09:54:55.333Z,1202.00
2023-03-15T09:55:55.284Z,1205.00
2023-03-15T09:56:55.252Z,1183.00
2023-03-15T09:57:55.231Z,1171.00
2023-03-15T09:58:55.158Z,1166.00
2023-03-15T09:59:55.135Z,1166.00
2023-03-15T10:00:55.064Z,1165.00
2023-03-15T10:01:55.124Z,1158.00
2023-03-15T10:02:55.080Z,1148.00
2023-03-15T10:03:54.981Z,1119.00
2023-03-15T10:04:54.906Z,1102.00
2023-03-15T10:05:54.874Z,1094.00
2023-03-15T10:06:54.798Z,1083.00
2023-03-15T10:07:54.763Z,1072.00
2023-03-15T10:08:54.704Z,1058.00
2023-03-15T10:09:54.726Z,1047.00
2023-03-15T10:10:54.610Z,1040.00
2023-03-15T10:11:54.631Z,1029.00
2023-03-15T10:12:54.527Z,1014.00
2023-03-15T10:13:54.466Z,1006.00
2023-03-15T10:14:54.431Z,996.00
2023-03-15T10:15:54.398Z,989.00
2023-03-15T10:16:54.327Z,986.00
2023-03-15T10:17:54.263Z,981.00
2023-03-15T10:18:54.224Z,963.00
2023-03-15T10:19:54.172Z,952.00
2023-03-15T10:20:54.114Z,944.00
2023-03-15T10:21:54.074Z,938.00
2023-03-15T10:22:54.011Z,930.00
2023-03-15T10:23:53.992Z,926.00
2023-03-15T10:24:53.907Z,919.00
2023-03-15T10:25:53.860Z,913.00
2023-03-15T10:26:53.820Z,907.00
2023-03-15T10:27:53.725Z,900.00
2023-03-15T10:28:53.689Z,898.00
2023-03-15T10:29:53.678Z,893.00
2023-03-15T10:30:53.606Z,887.00
2023-03-15T10:31:53.550Z,879.00
2023-03-15T10:32:53.538Z,871.00
2023-03-15T10:33:53.408Z,867.00
2023-03-15T10:34:53.380Z,866.00
2023-03-15T10:35:58.597Z,866.00
2023-03-15T10:36:54.265Z,860.00
2023-03-15T10:37:53.191Z,853.00
2023-03-15T10:38:53.175Z,844.00
2023-03-15T10:39:54.522Z,888.00
2023-03-15T10:40:53.045Z,904.00
2023-03-15T10:41:52.978Z,885.00
2023-03-15T10:42:52.921Z,896.00
2023-03-15T10:43:52.871Z,994.00
2023-03-15T10:44:52.830Z,988.00
2023-03-15T10:45:53.255Z,1032.00
2023-03-15T10:46:52.806Z,1058.00
2023-03-15T10:48:00.251Z,1076.00
2023-03-15T10:48:53.615Z,1083.00
2023-03-15T10:49:52.513Z,1096.00
2023-03-15T10:50:52.446Z,1154.00
2023-03-15T10:51:52.421Z,1183.00
2023-03-15T10:52:52.985Z,1188.00
2023-03-15T10:53:52.265Z,1187.00
2023-03-15T10:54:55.337Z,1209.00
2023-03-15T10:55:53.134Z,1230.00
2023-03-15T10:56:52.062Z,1271.00
2023-03-15T10:57:51.990Z,1321.00
2023-03-15T10:59:05.883Z,1324.00
2023-03-15T10:59:52.905Z,1362.00
2023-03-15T11:00:51.801Z,1382.00
2023-03-15T11:01:51.741Z,1387.00
2023-03-15T11:02:51.672Z,1391.00
2023-03-15T11:03:51.578Z,1401.00
2023-03-15T11:04:51.526Z,1412.00
2023-03-15T11:05:51.425Z,1418.00
2023-03-15T11:06:51.360Z,1434.00
2023-03-15T11:07:51.312Z,1468.00
2023-03-15T11:08:51.240Z,1485.00
2023-03-15T11:09:51.172Z,1508.00
2023-03-15T11:10:51.090Z,1512.00
2023-03-15T11:11:51.024Z,1518.00
2023-03-15T11:12:50.947Z,1533.00
2023-03-15T11:13:50.858Z,1541.00
2023-03-15T11:14:50.820Z,1554.00
2023-03-15T11:15:50.792Z,1553.00
2023-03-15T11:16:50.649Z,1580.00
2023-03-15T11:17:50.579Z,1625.00
2023-03-15T11:18:50.528Z,1642.00
2023-03-15T11:19:50.418Z,1642.00
2023-03-15T11:20:50.351Z,1656.00
2023-03-15T11:21:50.280Z,1674.00
2023-03-15T11:22:50.318Z,1702.00
2023-03-15T11:23:50.121Z,1739.00
2023-03-15T11:24:50.074Z,1754.00
2023-03-15T11:25:49.956Z,1756.00
2023-03-15T11:26:49.874Z,1758.00
2023-03-15T11:27:49.806Z,1763.00
2023-03-15T11:28:49.832Z,1787.00
2023-03-15T11:29:49.654Z,1801.00
2023-03-15T11:30:49.621Z,1724.00
2023-03-15T11:31:49.577Z,1730.00
2023-03-15T11:32:49.515Z,1621.00
2023-03-15T11:33:49.348Z,1240.00
2023-03-15T11:34:49.280Z,1469.00
2023-03-15T11:35:49.219Z,1497.00
2023-03-15T11:36:58.715Z,1493.00
2023-03-15T11:37:50.080Z,1518.00
2023-03-15T11:38:49.422Z,1521.00
2023-03-15T11:39:50.309Z,1476.00
2023-03-15T11:40:48.998Z,1411.00
2023-03-15T11:41:48.828Z,1375.00
2023-03-15T11:42:48.797Z,1363.00
2023-03-15T11:43:48.712Z,1353.00
2023-03-15T11:44:48.713Z,1339.00
2023-03-15T11:45:48.605Z,1332.00
2023-03-15T11:46:48.522Z,1330.00
2023-03-15T11:47:48.456Z,1324.00
2023-03-15T11:48:48.419Z,1323.00
2023-03-15T11:49:48.329Z,1309.00
2023-03-15T11:50:48.278Z,1305.00
2023-03-15T11:51:52.076Z,1296.00
2023-03-15T11:52:48.136Z,1291.00
2023-03-15T11:53:48.143Z,1276.00
2023-03-15T11:54:48.028Z,1261.00
2023-03-15T11:55:48.603Z,1226.00
2023-03-15T11:56:48.028Z,1212.00
2023-03-15T11:57:48.028Z,1211.00
2023-03-15T11:58:47.757Z,1206.00
2023-03-15T11:59:47.717Z,1208.00
2023-03-15T12:00:47.650Z,1207.00
2023-03-15T12:01:47.570Z,1207.00
2023-03-15T12:02:47.540Z,1203.00
2023-03-15T12:03:47.448Z,1204.00
2023-03-15T12:04:47.386Z,1201.00
2023-03-15T12:05:47.326Z,1194.00
2023-03-15T12:06:47.300Z,1186.00
2023-03-15T12:07:47.193Z,1172.00
2023-03-15T12:08:47.157Z,1170.00
2023-03-15T12:09:47.191Z,1172.00
2023-03-15T12:10:47.031Z,1169.00
2023-03-15T12:11:46.982Z,1164.00
2023-03-15T12:12:47.027Z,1157.00
2023-03-15T12:13:47.035Z,1150.00
2023-03-15T12:14:46.931Z,1149.00
2023-03-15T12:15:46.750Z,1145.00
2023-03-15T12:16:46.762Z,1141.00
2023-03-15T12:17:46.626Z,1138.00
2023-03-15T12:18:46.565Z,1136.00
2023-03-15T12:19:46.521Z,1132.00
2023-03-15T12:20:46.463Z,1129.00
2023-03-15T12:21:46.463Z,1127.00
2023-03-15T12:22:46.339Z,1120.00
2023-03-15T12:23:46.287Z,1119.00
2023-03-15T12:24:46.284Z,1121.00
2023-03-15T12:25:54.662Z,1133.00
2023-03-15T12:26:47.101Z,1138.00
2023-03-15T12:27:46.058Z,1139.00
2023-03-15T12:28:45.965Z,1136.00
2023-03-15T12:29:46.005Z,1128.00
2023-03-15T12:30:45.879Z,1136.00
2023-03-15T12:31:45.871Z,1120.00
2023-03-15T12:32:45.911Z,1115.00
2023-03-15T12:33:45.696Z,1115.00
2023-03-15T12:34:45.639Z,1107.00
2023-03-15T12:35:45.625Z,1099.00
2023-03-15T12:36:45.511Z,1093.00
2023-03-15T12:37:45.489Z,1088.00
2023-03-15T12:38:45.469Z,1071.00
2023-03-15T12:39:45.341Z,1102.00
2023-03-15T12:40:45.294Z,1091.00
2023-03-15T12:41:45.249Z,1073.00
2023-03-15T12:42:45.168Z,1068.00
2023-03-15T12:43:45.146Z,1066.00
2023-03-15T12:44:45.194Z,1064.00
2023-03-15T12:45:45.116Z,1067.00
2023-03-15T12:46:44.979Z,1067.00
2023-03-15T12:47:44.899Z,1060.00
2023-03-15T12:48:44.854Z,1051.00
2023-03-15T12:49:44.900Z,1043.00
2023-03-15T12:50:45.106Z,1039.00
2023-03-15T12:51:44.722Z,1039.00
2023-03-15T12:52:44.651Z,1041.00
2023-03-15T12:53:44.600Z,1037.00
2023-03-15T12:54:44.619Z,1040.00
2023-03-15T12:55:44.625Z,1037.00
2023-03-15T12:56:44.574Z,1034.00
2023-03-15T12:57:44.492Z,1028.00
2023-03-15T12:58:44.344Z,1025.00
2023-03-15T12:59:44.328Z,1020.00
2023-03-15T13:00:44.260Z,1017.00
2023-03-15T13:01:44.232Z,1013.00
2023-03-15T13:02:44.771Z,1013.00
2023-03-15T13:03:44.137Z,1014.00
2023-03-15T13:04:44.031Z,1013.00
2023-03-15T13:05:47.069Z,1013.00
2023-03-15T13:06:44.934Z,1012.00
2023-03-15T13:07:51.065Z,1009.00
2023-03-15T13:08:44.887Z,1004.00
2023-03-15T13:09:43.917Z,998.00
2023-03-15T13:10:43.747Z,995.00
2023-03-15T13:11:43.673Z,989.00
2023-03-15T13:12:43.774Z,988.00
2023-03-15T13:13:43.595Z,983.00
2023-03-15T13:14:43.526Z,981.00
2023-03-15T13:15:43.511Z,976.00
2023-03-15T13:16:43.630Z,977.00
2023-03-15T13:17:43.631Z,978.00
2023-03-15T13:18:43.341Z,977.00
2023-03-15T13:19:43.363Z,973.00
2023-03-15T13:20:43.251Z,976.00
2023-03-15T13:21:43.195Z,975.00
2023-03-15T13:22:50.019Z,974.00
2023-03-15T13:23:44.201Z,972.00
2023-03-15T13:24:43.075Z,968.00
2023-03-15T13:25:43.063Z,960.00
2023-03-15T13:26:42.976Z,958.00
2023-03-15T13:27:42.911Z,955.00
2023-03-15T13:28:42.882Z,958.00
2023-03-15T13:29:42.846Z,958.00
2023-03-15T13:30:42.823Z,956.00
2023-03-15T13:31:42.790Z,956.00
2023-03-15T13:32:42.787Z,956.00
2023-03-15T13:33:42.654Z,956.00
2023-03-15T13:34:42.596Z,954.00
2023-03-15T13:35:42.615Z,951.00
2023-03-15T13:36:44.291Z,951.00
2023-03-15T13:37:42.451Z,947.00
2023-03-15T13:38:42.399Z,944.00
2023-03-15T13:39:42.340Z,945.00
2023-03-15T13:40:42.287Z,946.00
2023-03-15T13:41:42.294Z,943.00
2023-03-15T13:42:42.189Z,935.00
2023-03-15T13:43:42.124Z,934.00
2023-03-15T13:44:42.124Z,933.00
2023-03-15T13:45:42.021Z,932.00
2023-03-15T13:46:42.234Z,932.00
2023-03-15T13:47:41.982Z,924.00
2023-03-15T13:48:41.905Z,923.00
2023-03-15T13:49:41.853Z,920.00
2023-03-15T13:50:41.827Z,919.00
2023-03-15T13:51:41.749Z,920.00
2023-03-15T13:52:41.719Z,922.00
2023-03-15T13:53:49.878Z,920.00
2023-03-15T13:54:42.648Z,916.00
2023-03-15T13:55:41.597Z,916.00
2023-03-15T13:56:49.400Z,915.00
2023-03-15T13:57:42.473Z,906.00
2023-03-15T13:58:41.466Z,905.00
2023-03-15T13:59:41.359Z,904.00
2023-03-15T14:00:41.334Z,902.00
2023-03-15T14:01:41.319Z,903.00
2023-03-15T14:02:41.289Z,898.00
2023-03-15T14:03:42.124Z,897.00
2023-03-15T14:04:41.140Z,896.00
2023-03-15T14:05:41.096Z,896.00
2023-03-15T14:06:41.115Z,896.00
2023-03-15T14:07:40.998Z,897.00
2023-03-15T14:08:40.961Z,897.00
2023-03-15T14:09:40.913Z,896.00
2023-03-15T14:10:40.874Z,901.00
2023-03-15T14:11:40.806Z,899.00
2023-03-15T14:12:40.777Z,897.00
2023-03-15T14:13:40.708Z,898.00
2023-03-15T14:14:40.676Z,894.00
2023-03-15T14:15:40.644Z,896.00
2023-03-15T14:16:57.240Z,898.00
2023-03-15T14:17:41.725Z,899.00
2023-03-15T14:18:40.526Z,896.00
2023-03-15T14:19:40.446Z,896.00
2023-03-15T14:20:40.451Z,896.00
2023-03-15T14:21:40.380Z,893.00
2023-03-15T14:22:40.316Z,888.00
2023-03-15T14:23:41.148Z,888.00
2023-03-15T14:24:40.264Z,889.00
2023-03-15T14:25:40.188Z,884.00
2023-03-15T14:26:40.160Z,884.00
2023-03-15T14:27:40.097Z,884.00
2023-03-15T14:28:40.051Z,881.00
2023-03-15T14:29:40.040Z,879.00
2023-03-15T14:30:39.953Z,875.00
2023-03-15T14:31:40.068Z,870.00
2023-03-15T14:32:39.875Z,866.00
2023-03-15T14:33:39.827Z,865.00
2023-03-15T14:34:39.914Z,866.00
2023-03-15T14:35:39.746Z,865.00
2023-03-15T14:36:39.658Z,863.00
2023-03-15T14:37:39.702Z,862.00
2023-03-15T14:38:39.556Z,860.00
2023-03-15T14:39:39.522Z,862.00
2023-03-15T14:40:39.454Z,866.00
2023-03-15T14:41:39.420Z,862.00
2023-03-15T14:42:39.360Z,855.00
2023-03-15T14:43:39.359Z,853.00
2023-03-15T14:44:39.295Z,854.00
2023-03-15T14:45:39.298Z,853.00
2023-03-15T14:46:39.198Z,855.00
2023-03-15T14:47:48.677Z,859.00
2023-03-15T14:48:40.082Z,861.00
2023-03-15T14:49:39.028Z,861.00
2023-03-15T14:50:39.059Z,861.00
2023-03-15T14:51:38.936Z,860.00
2023-03-15T14:52:38.998Z,861.00
2023-03-15T14:53:38.857Z,861.00
2023-03-15T14:54:38.794Z,862.00
2023-03-15T14:55:38.737Z,857.00
2023-03-15T14:56:38.695Z,854.00
2023-03-15T14:57:38.665Z,853.00
2023-03-15T14:58:38.601Z,853.00
2023-03-15T14:59:38.565Z,854.00
2023-03-15T15:00:38.552Z,852.00
2023-03-15T15:01:38.466Z,848.00
2023-03-15T15:02:38.517Z,848.00
2023-03-15T15:03:38.404Z,845.00